Time;durP1;ratioP1;P1;durP2;ratioP2;P2;SDS_P1;SDS_P2;PMS_P1;PMS_P2;Temp;Humidity;BMP_temperature;BMP_pressure;BME280_temperature;BME280_humidity;BME280_pressure;Samples;Min_cycle;Max_cycle;Signal;HPM_P1;HPM_P2
2022/02/16 00:00:08;;;;;;;0.00;0.00;;;7.00;99.90;;;;;;5073967;28;20115;-69
2022/02/16 00:02:34;;;;;;;0.20;0.20;;;7.00;99.90;;;;;;5073907;28;20386;-69
2022/02/16 00:05:00;;;;;;;0.00;0.00;;;7.00;99.90;;;;;;5073858;28;20033;-69
2022/02/16 00:07:26;;;;;;;0.00;0.00;;;7.00;99.90;;;;;;5074041;28;20040;-69
2022/02/16 00:09:51;;;;;;;0.10;0.10;;;7.00;99.90;;;;;;5089422;28;20036;-69
2022/02/16 00:12:17;;;;;;;0.00;0.00;;;7.00;99.90;;;;;;5073584;28;20470;-68
2022/02/16 00:14:43;;;;;;;0.10;0.10;;;7.00;99.90;;;;;;5073485;28;20054;-68
2022/02/16 00:17:09;;;;;;;0.00;0.00;;;7.00;99.90;;;;;;5073564;28;20028;-68
2022/02/16 00:19:35;;;;;;;0.00;0.00;;;7.10;99.90;;;;;;5073259;28;20456;-68
2022/02/16 00:22:00;;;;;;;0.00;0.00;;;7.00;99.90;;;;;;5073745;28;20473;-67
2022/02/16 00:24:26;;;;;;;0.03;0.03;;;7.00;99.90;;;;;;5073340;28;20072;-68
2022/02/16 00:26:52;;;;;;;0.00;0.00;;;7.00;99.90;;;;;;5073554;28;20457;-68
2022/02/16 00:29:17;;;;;;;0.10;0.10;;;7.00;99.90;;;;;;5072210;28;20064;-68
2022/02/16 00:31:43;;;;;;;0.20;0.20;;;7.00;99.90;;;;;;5072856;28;20033;-68
2022/02/16 00:34:09;;;;;;;0.20;0.20;;;7.00;99.90;;;;;;5073189;28;20382;-68
2022/02/16 00:36:36;;;;;;;0.00;0.00;;;7.00;99.90;;;;;;5073048;28;20078;-68
2022/02/16 00:39:03;;;;;;;2.25;2.05;;;7.00;99.90;;;;;;5088935;28;20071;-69
2022/02/16 00:41:29;;;;;;;0.63;0.63;;;7.00;99.90;;;;;;5088613;28;20126;-68
2022/02/16 00:43:55;;;;;;;0.10;0.10;;;7.00;99.90;;;;;;5073244;28;20045;-68
2022/02/16 00:46:21;;;;;;;0.00;0.00;;;7.00;99.90;;;;;;5072984;28;20447;-68
2022/02/16 00:48:47;;;;;;;0.00;0.00;;;6.90;99.90;;;;;;5072787;28;20028;-68
2022/02/16 00:51:12;;;;;;;0.00;0.00;;;6.90;99.90;;;;;;5072762;28;20389;-68
2022/02/16 00:53:38;;;;;;;0.00;0.00;;;6.90;99.90;;;;;;5087845;28;20159;-68
2022/02/16 00:56:04;;;;;;;0.10;0.10;;;6.90;99.90;;;;;;5072677;28;20028;-68
2022/02/16 00:58:30;;;;;;;0.10;0.10;;;7.00;99.90;;;;;;5072986;28;20032;-68
2022/02/16 01:00:55;;;;;;;0.10;0.10;;;6.90;99.90;;;;;;5072548;28;20032;-68
2022/02/16 01:03:21;;;;;;;0.28;0.28;;;6.90;99.90;;;;;;5072574;28;20149;-68
2022/02/16 01:05:48;;;;;;;0.10;0.10;;;6.90;99.90;;;;;;5072559;28;20028;-68
2022/02/16 01:08:14;;;;;;;0.00;0.00;;;6.90;99.90;;;;;;5072625;28;20078;-69
2022/02/16 01:10:41;;;;;;;0.55;0.55;;;6.90;99.90;;;;;;5072632;28;20041;-68
2022/02/16 01:13:08;;;;;;;0.00;0.00;;;6.90;99.90;;;;;;5071270;28;20028;-69
2022/02/16 01:15:34;;;;;;;0.00;0.00;;;6.90;99.90;;;;;;5088175;28;20036;-69
2022/02/16 01:18:01;;;;;;;1.05;0.65;;;6.80;99.90;;;;;;5088258;28;20058;-69
2022/02/16 01:20:27;;;;;;;0.00;0.00;;;6.90;99.90;;;;;;5087780;28;20485;-69
2022/02/16 01:22:53;;;;;;;0.00;0.00;;;6.90;99.90;;;;;;5072554;28;20123;-69
2022/02/16 01:25:18;;;;;;;0.30;0.30;;;6.90;99.90;;;;;;5072354;28;20116;-69
2022/02/16 01:27:45;;;;;;;0.75;0.75;;;6.90;99.90;;;;;;5072116;28;20037;-69
2022/02/16 01:30:11;;;;;;;0.90;0.90;;;6.90;99.90;;;;;;5071930;28;20108;-69
2022/02/16 01:32:38;;;;;;;3.47;2.13;;;6.80;99.90;;;;;;5072291;28;20078;-69
2022/02/16 01:35:05;;;;;;;0.10;0.10;;;6.80;99.90;;;;;;5071973;28;20056;-69
2022/02/16 01:37:31;;;;;;;0.05;0.05;;;6.80;99.90;;;;;;5087619;28;20082;-68
2022/02/16 01:39:57;;;;;;;0.00;0.00;;;6.80;99.90;;;;;;5071848;28;20482;-69
2022/02/16 01:42:23;;;;;;;0.00;0.00;;;6.80;99.90;;;;;;5087892;28;20036;-69
2022/02/16 01:44:49;;;;;;;0.20;0.20;;;6.80;99.90;;;;;;5087444;28;20078;-69
2022/02/16 01:47:16;;;;;;;0.10;0.10;;;6.80;99.90;;;;;;5053769;28;20109;-69
2022/02/16 01:49:44;;;;;;;0.00;0.00;;;6.80;99.90;;;;;;5071822;28;20036;-69
2022/02/16 01:52:10;;;;;;;0.00;0.00;;;6.80;99.90;;;;;;5087287;28;20038;-69
2022/02/16 01:54:37;;;;;;;0.00;0.00;;;6.80;99.90;;;;;;5071864;28;20107;-69
2022/02/16 01:57:05;;;;;;;0.00;0.00;;;6.70;99.90;;;;;;5071777;28;20477;-69
2022/02/16 01:59:33;;;;;;;0.35;0.35;;;6.70;99.90;;;;;;5087605;28;20036;-69
2022/02/16 02:01:59;;;;;;;0.00;0.00;;;6.70;99.90;;;;;;5071905;28;20111;-69
2022/02/16 02:04:25;;;;;;;0.75;0.75;;;6.70;99.90;;;;;;5086718;28;20077;-68
2022/02/16 02:06:51;;;;;;;1.85;1.55;;;6.70;99.90;;;;;;5087267;28;20439;-68
2022/02/16 02:09:16;;;;;;;0.00;0.00;;;6.70;99.90;;;;;;5071750;28;20024;-69
2022/02/16 02:11:43;;;;;;;0.00;0.00;;;6.70;99.90;;;;;;5071480;28;20389;-69
2022/02/16 02:14:10;;;;;;;0.00;0.00;;;6.70;99.90;;;;;;5071748;28;20119;-70
2022/02/16 02:16:38;;;;;;;0.08;0.08;;;6.70;99.90;;;;;;5071533;28;20059;-68
2022/02/16 02:19:04;;;;;;;0.05;0.05;;;6.70;99.90;;;;;;5071489;28;20496;-68
2022/02/16 02:21:31;;;;;;;0.20;0.20;;;6.60;99.90;;;;;;5087293;28;20040;-69
2022/02/16 02:23:58;;;;;;;0.10;0.10;;;6.60;99.90;;;;;;5086652;28;20054;-69
2022/02/16 02:26:25;;;;;;;0.10;0.10;;;6.60;99.90;;;;;;5087062;28;20036;-69
2022/02/16 02:28:51;;;;;;;0.00;0.00;;;6.60;99.90;;;;;;5086823;28;20066;-69
2022/02/16 02:31:32;;;;;;;0.63;0.63;;;6.60;99.90;;;;;;5071397;28;20089;-69
2022/02/16 02:33:59;;;;;;;0.17;0.17;;;6.60;99.90;;;;;;5086571;28;20064;-69
2022/02/16 02:36:25;;;;;;;0.00;0.00;;;6.60;99.90;;;;;;5071500;28;20039;-69
2022/02/16 02:38:51;;;;;;;0.00;0.00;;;6.60;99.90;;;;;;5086799;28;20063;-69
2022/02/16 02:41:18;;;;;;;0.00;0.00;;;6.60;99.90;;;;;;5071835;28;20037;-70
2022/02/16 02:43:46;;;;;;;0.10;0.10;;;6.60;99.90;;;;;;5071552;28;20029;-68
2022/02/16 02:46:13;;;;;;;0.00;0.00;;;6.60;99.90;;;;;;5069918;28;20048;-69
2022/02/16 02:48:39;;;;;;;0.00;0.00;;;6.50;99.90;;;;;;5087278;28;20448;-69
2022/02/16 02:51:04;;;;;;;0.10;0.10;;;6.60;99.90;;;;;;5087039;28;20028;-69
2022/02/16 02:53:30;;;;;;;0.10;0.10;;;6.50;99.90;;;;;;5070330;28;20083;-69
2022/02/16 02:55:56;;;;;;;0.05;0.05;;;6.60;99.90;;;;;;5086956;28;20021;-69
2022/02/16 02:58:22;;;;;;;2.83;1.55;;;6.50;99.90;;;;;;5086835;28;20032;-69
2022/02/16 03:00:49;;;;;;;0.45;0.45;;;6.50;99.90;;;;;;5071170;28;20032;-69
2022/02/16 03:03:14;;;;;;;0.05;0.05;;;6.50;99.90;;;;;;5070408;28;20029;-69
2022/02/16 03:05:40;;;;;;;0.00;0.00;;;6.50;99.90;;;;;;5071078;28;20035;-68
2022/02/16 03:08:06;;;;;;;0.00;0.00;;;6.50;99.90;;;;;;5071078;28;20124;-68
2022/02/16 03:10:33;;;;;;;0.38;0.38;;;6.50;99.90;;;;;;5071093;28;20482;-69
2022/02/16 03:12:59;;;;;;;0.10;0.10;;;6.50;99.90;;;;;;5071384;28;20032;-68
2022/02/16 03:15:24;;;;;;;0.00;0.00;;;6.50;99.90;;;;;;5071341;28;20579;-68
2022/02/16 03:17:50;;;;;;;0.35;0.35;;;6.40;99.90;;;;;;5074629;28;20032;-68
2022/02/16 03:20:16;;;;;;;2.65;0.85;;;6.40;99.90;;;;;;5075111;28;20036;-68
2022/02/16 03:22:45;;;;;;;0.43;0.43;;;6.40;99.90;;;;;;5074863;28;20036;-68
2022/02/16 03:25:11;;;;;;;0.00;0.00;;;6.50;99.90;;;;;;5075044;28;20110;-68
2022/02/16 03:27:38;;;;;;;0.47;0.40;;;6.40;99.90;;;;;;5074794;28;20032;-68
2022/02/16 03:30:08;;;;;;;0.20;0.20;;;6.40;99.90;;;;;;5090226;28;20031;-68
2022/02/16 03:32:35;;;;;;;0.22;0.22;;;6.40;99.90;;;;;;5090013;28;20043;-68
2022/02/16 03:35:05;;;;;;;0.03;0.03;;;6.40;99.90;;;;;;5074722;28;20033;-68
2022/02/16 03:37:30;;;;;;;0.00;0.00;;;6.30;99.90;;;;;;5089955;28;20497;-68
2022/02/16 03:39:56;;;;;;;0.10;0.10;;;6.40;99.90;;;;;;5074459;28;20118;-68
2022/02/16 03:42:22;;;;;;;1.02;0.68;;;6.40;99.90;;;;;;5074476;28;20040;-68
2022/02/16 03:44:47;;;;;;;0.00;0.00;;;6.40;99.90;;;;;;5074327;28;20082;-68
2022/02/16 03:47:13;;;;;;;0.00;0.00;;;6.40;99.90;;;;;;5074092;28;20511;-68
2022/02/16 03:49:39;;;;;;;0.08;0.08;;;6.40;99.90;;;;;;5074512;28;20385;-69
2022/02/16 03:52:05;;;;;;;0.00;0.00;;;6.40;99.90;;;;;;5074095;28;20038;-68
2022/02/16 03:54:31;;;;;;;0.43;0.40;;;6.40;99.90;;;;;;5074571;28;20029;-68
2022/02/16 03:56:56;;;;;;;0.00;0.00;;;6.40;99.90;;;;;;5074005;28;20370;-68
2022/02/16 03:59:22;;;;;;;0.43;0.43;;;6.40;99.90;;;;;;5074191;28;20040;-68
2022/02/16 04:01:48;;;;;;;0.00;0.00;;;6.40;99.90;;;;;;5089909;28;20055;-68
2022/02/16 04:04:13;;;;;;;0.00;0.00;;;6.40;99.90;;;;;;5074414;28;20033;-68
2022/02/16 04:06:39;;;;;;;0.00;0.00;;;6.40;99.90;;;;;;5074324;28;20037;-68
2022/02/16 04:09:05;;;;;;;0.00;0.00;;;6.40;99.90;;;;;;5074192;28;20120;-68
2022/02/16 04:11:31;;;;;;;0.00;0.00;;;6.40;99.90;;;;;;5074011;28;20036;-68
2022/02/16 04:13:57;;;;;;;0.75;0.65;;;6.40;99.90;;;;;;5074035;28;20039;-68
2022/02/16 04:16:24;;;;;;;0.80;0.80;;;6.40;99.90;;;;;;5073884;28;20108;-68
2022/02/16 04:18:50;;;;;;;0.00;0.00;;;6.40;99.90;;;;;;5089225;28;20033;-69
2022/02/16 04:21:16;;;;;;;0.10;0.10;;;6.40;99.90;;;;;;5073899;28;20032;-69
2022/02/16 04:23:43;;;;;;;0.00;0.00;;;6.40;99.90;;;;;;5073511;28;20051;-69
2022/02/16 04:26:09;;;;;;;0.10;0.10;;;6.40;99.90;;;;;;5073818;28;20118;-69
2022/02/16 04:28:36;;;;;;;0.10;0.10;;;6.40;99.90;;;;;;5073065;28;20028;-69
2022/02/16 04:31:02;;;;;;;0.00;0.00;;;6.40;99.90;;;;;;5089166;28;20040;-69
2022/02/16 04:33:28;;;;;;;0.10;0.10;;;6.40;99.90;;;;;;5072195;28;20043;-68
2022/02/16 04:35:54;;;;;;;0.00;0.00;;;6.40;99.90;;;;;;5073706;28;20385;-69
2022/02/16 04:38:20;;;;;;;0.10;0.10;;;6.40;99.90;;;;;;5073615;28;20123;-69
2022/02/16 04:40:49;;;;;;;0.00;0.00;;;6.40;99.90;;;;;;5073372;28;20028;-69
2022/02/16 04:43:14;;;;;;;0.00;0.00;;;6.50;99.90;;;;;;5089362;28;20052;-69
2022/02/16 04:45:40;;;;;;;0.00;0.00;;;6.50;99.90;;;;;;5073090;28;20117;-69
2022/02/16 04:48:06;;;;;;;0.10;0.10;;;6.40;99.90;;;;;;5073200;28;20052;-69
2022/02/16 04:50:32;;;;;;;0.00;0.00;;;6.40;99.90;;;;;;5073004;28;20064;-68
2022/02/16 04:52:58;;;;;;;0.08;0.08;;;6.40;99.90;;;;;;5073014;28;20414;-68
2022/02/16 04:55:27;;;;;;;0.00;0.00;;;6.50;99.90;;;;;;5073145;28;20047;-68
2022/02/16 04:57:54;;;;;;;0.00;0.00;;;6.50;99.90;;;;;;5073091;28;20086;-69
2022/02/16 05:00:21;;;;;;;0.00;0.00;;;6.50;99.90;;;;;;5088804;28;20093;-69
2022/02/16 05:02:47;;;;;;;0.52;0.52;;;6.50;99.90;;;;;;5072692;28;20539;-69
2022/02/16 05:05:13;;;;;;;0.00;0.00;;;6.50;99.90;;;;;;5071804;28;20028;-68
2022/02/16 05:07:39;;;;;;;0.00;0.00;;;6.50;99.90;;;;;;5086634;28;20032;-71
2022/02/16 05:10:06;;;;;;;0.00;0.00;;;6.50;99.90;;;;;;5072551;28;20039;-71
2022/02/16 05:12:33;;;;;;;0.00;0.00;;;6.60;99.90;;;;;;5071462;28;20592;-72
2022/02/16 05:15:02;;;;;;;0.40;0.40;;;6.50;99.90;;;;;;5071039;28;20116;-71
2022/02/16 05:17:28;;;;;;;0.00;0.00;;;6.60;99.90;;;;;;5069062;28;20029;-71
2022/02/16 05:19:55;;;;;;;0.00;0.00;;;6.60;99.90;;;;;;5072635;28;20372;-70
2022/02/16 05:22:21;;;;;;;0.00;0.00;;;6.60;99.90;;;;;;5055033;28;20033;-70
2022/02/16 05:24:47;;;;;;;0.00;0.00;;;6.60;99.90;;;;;;5071354;28;20029;-70
2022/02/16 05:27:13;;;;;;;0.00;0.00;;;6.60;99.90;;;;;;5072861;28;20410;-75
2022/02/16 05:29:39;;;;;;;0.00;0.00;;;6.60;99.90;;;;;;5071205;28;20031;-72
2022/02/16 05:32:05;;;;;;;0.03;0.03;;;6.70;99.90;;;;;;5072374;28;20504;-73
2022/02/16 05:34:31;;;;;;;0.00;0.00;;;6.70;99.90;;;;;;5054530;28;20146;-78
2022/02/16 05:36:57;;;;;;;2.55;0.70;;;6.70;99.90;;;;;;5072560;28;20104;-76
2022/02/16 05:39:23;;;;;;;0.00;0.00;;;6.60;99.90;;;;;;5071996;28;20048;-76
2022/02/16 05:41:49;;;;;;;0.00;0.00;;;6.70;99.90;;;;;;5071900;28;20025;-74
2022/02/16 05:44:15;;;;;;;0.00;0.00;;;6.70;99.90;;;;;;5072232;28;20029;-77
2022/02/16 05:46:41;;;;;;;0.00;0.00;;;6.70;99.90;;;;;;5087609;28;20076;-75
2022/02/16 05:49:08;;;;;;;1.95;0.98;;;6.70;99.90;;;;;;5087793;28;20076;-70
2022/02/16 05:51:37;;;;;;;0.00;0.00;;;6.70;99.90;;;;;;5072069;28;20040;-72
2022/02/16 05:54:04;;;;;;;0.10;0.10;;;6.80;99.90;;;;;;5071728;28;20031;-72
2022/02/16 05:56:32;;;;;;;0.00;0.00;;;6.80;99.90;;;;;;5072046;28;20087;-72
2022/02/16 05:58:58;;;;;;;0.00;0.00;;;6.80;99.90;;;;;;5071597;28;20032;-67
2022/02/16 06:01:24;;;;;;;0.00;0.00;;;6.80;99.90;;;;;;5072167;28;20039;-70
2022/02/16 06:03:50;;;;;;;0.00;0.00;;;6.80;99.90;;;;;;5071968;28;20067;-69
2022/02/16 06:06:18;;;;;;;0.08;0.08;;;6.80;99.90;;;;;;5087503;28;20489;-70
2022/02/16 06:08:48;;;;;;;0.00;0.00;;;6.80;99.90;;;;;;5086664;28;20024;-70
2022/02/16 06:11:14;;;;;;;0.00;0.00;;;6.80;99.90;;;;;;5087218;28;20035;-70
2022/02/16 06:13:40;;;;;;;0.00;0.00;;;6.80;99.90;;;;;;5071778;28;20384;-68
2022/02/16 06:16:06;;;;;;;0.00;0.00;;;6.80;99.90;;;;;;5087399;28;20048;-69
2022/02/16 06:18:32;;;;;;;0.00;0.00;;;6.90;99.90;;;;;;5087612;28;20087;-67
2022/02/16 06:20:58;;;;;;;0.00;0.00;;;6.80;99.90;;;;;;5071508;28;20036;-69
2022/02/16 06:23:24;;;;;;;0.00;0.00;;;6.90;99.90;;;;;;5071620;28;20021;-69
2022/02/16 06:25:50;;;;;;;0.00;0.00;;;6.90;99.90;;;;;;5071586;28;20041;-70
2022/02/16 06:28:16;;;;;;;0.00;0.00;;;6.90;99.90;;;;;;5071415;28;20078;-69
2022/02/16 06:30:41;;;;;;;0.00;0.00;;;6.90;99.90;;;;;;5071336;28;20048;-69
2022/02/16 06:33:07;;;;;;;0.00;0.00;;;6.90;99.90;;;;;;5071211;28;20052;-69
2022/02/16 06:35:34;;;;;;;0.00;0.00;;;6.90;99.90;;;;;;5087003;28;20108;-69
2022/02/16 06:38:00;;;;;;;0.00;0.00;;;7.00;99.90;;;;;;5086737;28;20477;-69
2022/02/16 06:40:27;;;;;;;0.00;0.00;;;7.00;99.90;;;;;;5071593;28;20032;-69
2022/02/16 06:42:54;;;;;;;0.00;0.00;;;7.00;99.90;;;;;;5053077;28;20043;-69
2022/02/16 06:45:20;;;;;;;0.10;0.10;;;7.00;99.90;;;;;;5071518;28;20082;-70
2022/02/16 06:47:46;;;;;;;0.00;0.00;;;7.00;99.90;;;;;;5070867;28;20049;-69
2022/02/16 06:50:12;;;;;;;0.00;0.00;;;7.10;99.90;;;;;;5071181;28;20196;-69
2022/02/16 06:52:38;;;;;;;0.90;0.90;;;7.00;99.90;;;;;;5074641;28;20064;-69
2022/02/16 06:55:05;;;;;;;0.00;0.00;;;7.10;99.90;;;;;;5090799;28;20489;-63
2022/02/16 06:57:30;;;;;;;0.10;0.10;;;7.10;99.90;;;;;;5090347;28;20032;-70
2022/02/16 06:59:56;;;;;;;0.00;0.00;;;7.00;99.90;;;;;;5073597;28;20028;-69
2022/02/16 07:02:22;;;;;;;0.00;0.00;;;7.10;99.90;;;;;;5075408;28;20036;-70
2022/02/16 07:04:48;;;;;;;0.00;0.00;;;7.10;99.90;;;;;;5075250;28;20036;-70
2022/02/16 07:07:13;;;;;;;0.00;0.00;;;7.10;99.90;;;;;;5073861;28;20032;-70
2022/02/16 07:09:39;;;;;;;0.00;0.00;;;7.10;99.90;;;;;;5073915;28;20028;-70
2022/02/16 07:12:06;;;;;;;0.00;0.00;;;7.10;99.90;;;;;;5074853;28;20036;-70
2022/02/16 07:14:32;;;;;;;0.00;0.00;;;7.10;99.90;;;;;;5074876;28;20134;-70
2022/02/16 07:16:59;;;;;;;0.00;0.00;;;7.10;99.90;;;;;;5074875;28;20492;-70
2022/02/16 07:19:26;;;;;;;0.00;0.00;;;7.20;99.90;;;;;;5073412;28;20033;-70
2022/02/16 07:21:53;;;;;;;0.40;0.40;;;7.20;99.90;;;;;;5071954;28;20123;-71
2022/02/16 07:24:19;;;;;;;0.00;0.00;;;7.20;99.90;;;;;;5074442;28;20580;-70
2022/02/16 07:26:45;;;;;;;0.10;0.10;;;7.20;99.90;;;;;;5074405;28;20047;-70
2022/02/16 07:29:10;;;;;;;0.00;0.00;;;7.20;99.90;;;;;;5073126;28;20029;-70
2022/02/16 07:31:36;;;;;;;0.00;0.00;;;7.20;99.90;;;;;;5073093;28;20133;-70
2022/02/16 07:34:02;;;;;;;0.10;0.10;;;7.30;99.90;;;;;;5074208;28;20078;-70
2022/02/16 07:36:28;;;;;;;0.00;0.00;;;7.30;99.90;;;;;;5056498;28;20401;-70
2022/02/16 07:38:54;;;;;;;0.00;0.00;;;7.30;99.90;;;;;;5073804;28;20081;-69
2022/02/16 07:41:20;;;;;;;0.00;0.00;;;7.30;99.90;;;;;;5074570;28;20028;-69
2022/02/16 07:43:46;;;;;;;0.00;0.00;;;7.30;99.90;;;;;;5073995;28;20474;-69
2022/02/16 07:46:12;;;;;;;0.00;0.00;;;7.20;99.90;;;;;;5073952;28;20147;-69
2022/02/16 07:48:37;;;;;;;0.00;0.00;;;7.20;99.90;;;;;;5074027;28;20181;-67
2022/02/16 07:51:03;;;;;;;0.00;0.00;;;7.20;99.90;;;;;;5072748;28;20040;-66
2022/02/16 07:53:30;;;;;;;0.10;0.10;;;7.10;99.90;;;;;;5074170;28;20029;-67
2022/02/16 07:55:56;;;;;;;0.00;0.00;;;7.10;99.90;;;;;;5072892;28;20508;-67
2022/02/16 07:58:24;;;;;;;0.08;0.08;;;7.20;99.90;;;;;;5074197;28;20039;-66
2022/02/16 08:00:50;;;;;;;0.00;0.00;;;7.20;99.90;;;;;;5073022;28;20035;-66
2022/02/16 08:03:15;;;;;;;0.15;0.15;;;7.30;99.90;;;;;;5072379;28;20464;-67
2022/02/16 08:05:42;;;;;;;0.00;0.00;;;7.30;99.90;;;;;;5073949;28;20024;-66
2022/02/16 08:08:09;;;;;;;0.03;0.03;;;7.30;99.90;;;;;;5055851;28;20110;-66
2022/02/16 08:10:35;;;;;;;0.00;0.00;;;7.30;99.90;;;;;;5072674;28;20074;-67
2022/02/16 08:13:00;;;;;;;0.00;0.00;;;7.40;99.90;;;;;;5073639;28;20115;-66
2022/02/16 08:15:28;;;;;;;0.00;0.00;;;7.40;99.90;;;;;;5073707;28;20422;-67
2022/02/16 08:17:54;;;;;;;0.10;0.10;;;7.40;99.90;;;;;;5074014;28;20068;-66
2022/02/16 08:20:21;;;;;;;0.00;0.00;;;7.40;99.90;;;;;;5072327;28;20040;-67
2022/02/16 08:22:47;;;;;;;0.00;0.00;;;7.50;99.90;;;;;;5073464;28;20427;-67
2022/02/16 08:25:13;;;;;;;0.00;0.00;;;7.50;99.90;;;;;;5072288;28;20546;-67
2022/02/16 08:27:42;;;;;;;0.00;0.00;;;7.50;99.90;;;;;;5072152;28;20111;-67
2022/02/16 08:30:11;;;;;;;0.00;0.00;;;7.50;99.90;;;;;;5073351;28;20033;-67
2022/02/16 08:32:39;;;;;;;0.00;0.00;;;7.50;99.90;;;;;;5072160;28;20029;-66
2022/02/16 08:35:10;;;;;;;0.00;0.00;;;7.50;99.90;;;;;;5072125;28;20032;-67
2022/02/16 08:37:36;;;;;;;0.00;0.00;;;7.50;99.90;;;;;;5072118;28;20380;-67
2022/02/16 08:40:03;;;;;;;0.00;0.00;;;7.50;99.90;;;;;;5072116;28;20628;-66
2022/02/16 08:42:29;;;;;;;0.00;0.00;;;7.50;99.90;;;;;;5073543;28;20111;-66
2022/02/16 08:44:58;;;;;;;0.00;0.00;;;7.50;99.90;;;;;;5071700;28;20104;-66
2022/02/16 08:47:25;;;;;;;0.00;0.00;;;7.60;99.90;;;;;;5073058;28;20044;-66
2022/02/16 08:49:51;;;;;;;0.00;0.00;;;7.60;99.90;;;;;;5073303;28;20025;-67
2022/02/16 08:52:17;;;;;;;0.00;0.00;;;7.60;99.90;;;;;;5072964;28;20035;-66
2022/02/16 08:54:43;;;;;;;0.05;0.05;;;7.60;99.90;;;;;;5073227;28;20036;-66
2022/02/16 08:57:08;;;;;;;0.00;0.00;;;7.60;99.90;;;;;;5071685;28;20032;-66
2022/02/16 08:59:34;;;;;;;0.10;0.10;;;7.60;99.90;;;;;;5072977;28;20028;-66
2022/02/16 09:02:01;;;;;;;0.00;0.00;;;7.70;99.90;;;;;;5072850;28;20082;-66
2022/02/16 09:04:27;;;;;;;0.00;0.00;;;7.70;99.90;;;;;;5073112;28;20032;-67
2022/02/16 09:09:37;;;;;;;0.00;0.00;;;7.70;99.90;;;;;;5072913;28;20131;-66
2022/02/16 09:12:05;;;;;;;0.00;0.00;;;7.60;99.90;;;;;;5071350;28;20127;-70
2022/02/16 09:14:31;;;;;;;0.00;0.00;;;7.60;99.90;;;;;;5069899;28;20047;-67
2022/02/16 09:16:57;;;;;;;0.00;0.00;;;7.60;99.90;;;;;;5072397;28;20032;-66
2022/02/16 09:19:22;;;;;;;0.13;0.13;;;7.70;99.90;;;;;;5067364;28;20452;-66
2022/02/16 09:21:49;;;;;;;0.00;0.00;;;7.70;99.90;;;;;;5052562;28;20048;-66
2022/02/16 09:24:15;;;;;;;0.00;0.00;;;7.70;99.90;;;;;;5052165;28;20159;-66
2022/02/16 09:26:40;;;;;;;4.38;1.55;;;7.70;99.90;;;;;;5051374;28;20119;-67
2022/02/16 09:29:06;;;;;;;0.00;0.00;;;7.70;99.90;;;;;;5052369;28;20040;-67
2022/02/16 09:31:32;;;;;;;0.00;0.00;;;7.60;99.90;;;;;;5052144;28;20049;-66
2022/02/16 09:33:58;;;;;;;0.10;0.10;;;7.60;99.90;;;;;;5052484;28;20491;-67
2022/02/16 09:36:23;;;;;;;0.00;0.00;;;7.60;99.90;;;;;;5051945;28;20052;-66
2022/02/16 09:38:49;;;;;;;0.00;0.00;;;7.70;99.90;;;;;;5051958;28;20048;-66
2022/02/16 09:41:16;;;;;;;0.30;0.30;;;7.60;99.90;;;;;;5050528;28;20033;-66
2022/02/16 09:43:46;;;;;;;0.00;0.00;;;7.70;99.90;;;;;;5051873;28;20033;-66
2022/02/16 09:46:12;;;;;;;0.03;0.03;;;7.70;99.90;;;;;;5051766;28;20084;-67
2022/02/16 09:48:40;;;;;;;0.00;0.00;;;7.70;99.90;;;;;;5050751;28;20065;-66
2022/02/16 09:51:06;;;;;;;1.17;0.57;;;7.70;99.90;;;;;;5052039;28;20033;-67
2022/02/16 09:53:33;;;;;;;0.10;0.10;;;7.70;99.90;;;;;;5050946;28;20139;-67
2022/02/16 09:56:03;;;;;;;0.00;0.00;;;7.70;99.90;;;;;;5050981;28;20037;-67
2022/02/16 09:58:32;;;;;;;0.00;0.00;;;7.70;99.90;;;;;;5052009;28;20032;-67
2022/02/16 10:01:16;;;;;;;0.00;0.00;;;7.70;99.90;;;;;;5051798;28;20029;-67
2022/02/16 10:04:04;;;;;;;0.00;0.00;;;7.60;99.90;;;;;;5050459;28;20033;-67
2022/02/16 10:06:40;;;;;;;0.00;0.00;;;7.70;99.90;;;;;;5051868;28;20037;-66
2022/02/16 10:09:07;;;;;;;0.00;0.00;;;7.80;99.90;;;;;;5050072;28;20038;-67
2022/02/16 10:11:34;;;;;;;0.00;0.00;;;7.80;99.90;;;;;;5051858;28;20073;-67
2022/02/16 10:14:17;;;;;;;0.40;0.40;;;7.90;99.90;;;;;;5051579;28;20118;-67
2022/02/16 10:16:43;;;;;;;0.00;0.00;;;7.90;99.90;;;;;;5051428;28;20450;-67
2022/02/16 10:19:09;;;;;;;0.00;0.00;;;7.90;99.90;;;;;;5050122;28;20037;-67
2022/02/16 10:21:35;;;;;;;0.13;0.13;;;8.00;99.90;;;;;;5051410;28;20108;-67
2022/02/16 10:24:01;;;;;;;0.25;0.25;;;8.00;99.90;;;;;;5051394;28;20033;-67
2022/02/16 10:26:50;;;;;;;0.00;0.00;;;8.10;99.90;;;;;;5050594;28;20024;-67
2022/02/16 10:29:25;;;;;;;0.90;0.52;;;8.10;99.90;;;;;;5051030;28;20127;-67
2022/02/16 10:31:51;;;;;;;0.88;0.88;;;8.10;99.90;;;;;;5051367;28;20029;-67
2022/02/16 10:34:17;;;;;;;0.00;0.00;;;8.10;99.90;;;;;;5050045;28;20041;-66
2022/02/16 10:36:46;;;;;;;0.00;0.00;;;8.20;99.90;;;;;;5050149;28;20114;-66
2022/02/16 10:39:19;;;;;;;0.00;0.00;;;8.20;99.90;;;;;;5049902;28;20033;-67
2022/02/16 10:41:58;;;;;;;0.00;0.00;;;8.20;99.90;;;;;;5050216;28;20040;-66
2022/02/16 10:44:31;;;;;;;0.10;0.10;;;8.30;99.90;;;;;;5051176;28;20362;-67
2022/02/16 10:47:11;;;;;;;0.00;0.00;;;8.30;99.90;;;;;;5049948;28;20064;-67
2022/02/16 10:49:49;;;;;;;0.03;0.03;;;8.30;99.90;;;;;;5050189;28;20604;-67
2022/02/16 10:52:20;;;;;;;0.00;0.00;;;8.30;99.90;;;;;;5049620;28;20086;-69
2022/02/16 10:54:56;;;;;;;;;;;8.30;99.90;;;;;;5066992;28;20056;-70
2022/02/16 10:57:22;;;;;;;0.00;0.00;;;8.30;99.90;;;;;;5051294;28;19958;-71
2022/02/16 10:59:51;;;;;;;0.00;0.00;;;8.40;99.90;;;;;;5053612;28;20037;-71
2022/02/16 11:02:18;;;;;;;0.00;0.00;;;8.40;99.90;;;;;;5052221;28;20116;-70
2022/02/16 11:04:47;;;;;;;0.00;0.00;;;8.40;99.90;;;;;;5051152;28;20040;-64
2022/02/16 11:07:19;;;;;;;0.00;0.00;;;8.50;99.90;;;;;;5049907;28;20033;-67
2022/02/16 11:09:49;;;;;;;0.00;0.00;;;8.50;99.90;;;;;;5068055;28;20029;-68
2022/02/16 11:12:16;;;;;;;0.00;0.00;;;8.40;99.90;;;;;;5070773;28;20028;-75
2022/02/16 11:14:43;;;;;;;0.00;0.00;;;8.40;99.90;;;;;;5070681;28;20132;-67
2022/02/16 11:17:10;;;;;;;0.00;0.00;;;8.40;99.90;;;;;;5069457;28;20025;-66
2022/02/16 11:19:39;;;;;;;0.10;0.10;;;8.40;99.90;;;;;;5070982;28;20107;-65
2022/02/16 11:22:14;;;;;;;0.00;0.00;;;8.40;99.90;;;;;;5071010;28;20025;-64
2022/02/16 11:24:46;;;;;;;0.00;0.00;;;8.40;99.90;;;;;;5070910;28;20040;-64
2022/02/16 11:27:29;;;;;;;0.00;0.00;;;8.40;99.90;;;;;;5052824;28;20827;-65
2022/02/16 11:30:00;;;;;;;0.00;0.00;;;8.40;99.90;;;;;;5069648;28;20465;-65
2022/02/16 11:32:42;;;;;;;0.00;0.00;;;8.40;99.90;;;;;;5069616;28;20041;-65
2022/02/16 11:35:27;;;;;;;;;;;8.50;99.90;;;;;;5069745;28;20055;-66
2022/02/16 11:38:01;;;;;;;0.00;0.00;;;8.50;99.90;;;;;;5072615;28;19920;-66
2022/02/16 11:40:50;;;;;;;0.00;0.00;;;8.50;99.90;;;;;;5074147;28;20438;-66
2022/02/16 11:43:22;;;;;;;0.00;0.00;;;8.60;99.90;;;;;;5074461;28;20029;-67
2022/02/16 11:46:00;;;;;;;0.00;0.00;;;8.70;99.90;;;;;;5074318;28;20035;-68
2022/02/16 11:48:50;;;;;;;0.00;0.00;;;8.70;99.90;;;;;;5073160;28;20495;-67
2022/02/16 11:51:33;;;;;;;0.00;0.00;;;8.70;99.90;;;;;;5074265;28;20043;-67
2022/02/16 11:54:45;;;;;;;0.00;0.00;;;8.80;99.90;;;;;;5055895;28;20037;-67
2022/02/16 11:58:05;;;;;;;0.05;0.05;;;8.80;99.90;;;;;;5074144;28;20082;-67
2022/02/16 12:00:56;;;;;;;0.00;0.00;;;8.90;99.90;;;;;;5050564;28;20099;-66
2022/02/16 12:03:48;;;;;;;2.30;1.08;;;8.90;99.90;;;;;;5072198;28;20044;-66
2022/02/16 12:06:16;;;;;;;0.20;0.20;;;9.00;99.90;;;;;;5073978;28;20473;-67
2022/02/16 12:08:47;;;;;;;0.10;0.10;;;9.00;99.90;;;;;;5073708;28;20040;-67
2022/02/16 12:11:20;;;;;;;0.00;0.00;;;9.00;99.90;;;;;;5073602;28;20098;-67
2022/02/16 12:14:04;;;;;;;0.00;0.00;;;9.00;99.90;;;;;;5072788;28;20032;-67
2022/02/16 12:16:42;;;;;;;0.00;0.00;;;9.00;99.90;;;;;;5056162;28;20111;-67
2022/02/16 12:19:11;;;;;;;0.00;0.00;;;9.10;99.90;;;;;;5073766;28;20070;-67
2022/02/16 12:21:53;;;;;;;0.00;0.00;;;9.10;99.90;;;;;;5072588;28;20036;-66
2022/02/16 12:24:25;;;;;;;0.00;0.00;;;9.10;99.90;;;;;;5072198;28;20078;-67
2022/02/16 12:26:55;;;;;;;0.00;0.00;;;9.20;99.90;;;;;;5072045;28;20552;-67
2022/02/16 12:29:31;;;;;;;0.00;0.00;;;9.20;99.90;;;;;;5073492;28;20162;-66
2022/02/16 12:32:00;;;;;;;0.00;0.00;;;9.20;99.90;;;;;;5073319;28;20481;-67
2022/02/16 12:34:34;;;;;;;0.00;0.00;;;9.20;99.90;;;;;;5072064;28;20029;-68
2022/02/16 12:37:15;;;;;;;0.00;0.00;;;9.30;99.90;;;;;;5071857;28;20028;-75
2022/02/16 12:39:51;;;;;;;0.00;0.00;;;9.30;99.90;;;;;;5072003;28;20401;-68
2022/02/16 12:42:17;;;;;;;0.00;0.00;;;9.40;99.90;;;;;;5073143;28;20024;-70
2022/02/16 12:44:43;;;;;;;0.00;0.00;;;9.40;99.90;;;;;;5071538;28;20043;-79
2022/02/16 12:47:11;;;;;;;0.10;0.10;;;9.40;99.90;;;;;;5071355;28;20512;-66
2022/02/16 12:49:40;;;;;;;0.08;0.08;;;9.40;99.90;;;;;;5072000;28;20611;-62
2022/02/16 12:52:06;;;;;;;0.00;0.00;;;9.40;99.90;;;;;;5072802;28;20119;-73
2022/02/16 12:54:37;;;;;;;0.00;0.00;;;9.50;99.90;;;;;;5072734;28;20035;-68
2022/02/16 12:57:07;;;;;;;0.00;0.00;;;9.50;99.90;;;;;;5072854;28;20112;-67
2022/02/16 13:00:46;;;;;;;0.00;0.00;;;9.50;99.90;;;;;;5071256;28;20155;-68
2022/02/16 13:02:26;;;;;;;0.00;0.00;;;9.60;99.90;;;;;;5071398;28;20071;-68
2022/02/16 13:05:04;;;;;;;0.00;0.00;;;9.60;99.90;;;;;;5072859;28;20060;-66